Time;durP1;ratioP1;P1;durP2;ratioP2;P2;SDS_P1;SDS_P2;PMS_P1;PMS_P2;Temp;Humidity;BMP_temperature;BMP_pressure;BME280_temperature;BME280_humidity;BME280_pressure;Samples;Min_cycle;Max_cycle;Signal;HPM_P1;HPM_P2
2023/06/23 00:02:12;;;;;;;4.20;2.20;;;;;;;21.53;48.99;101210.69;4995444;28;20073;-58
2023/06/23 00:04:39;;;;;;;3.67;1.98;;;;;;;21.48;48.51;101206.06;5010177;28;20070;-58
2023/06/23 00:07:05;;;;;;;8.10;2.10;;;;;;;21.22;49.27;101198.91;4994514;28;20368;-56
2023/06/23 00:09:31;;;;;;;6.95;2.38;;;;;;;21.32;49.79;101204.38;4995264;28;20033;-56
2023/06/23 00:11:58;;;;;;;6.03;2.33;;;;;;;21.47;48.70;101198.16;4995571;28;20037;-55
2023/06/23 00:14:24;;;;;;;3.72;2.22;;;;;;;21.38;48.94;101194.31;4995316;28;20069;-56
2023/06/23 00:16:50;;;;;;;3.22;2.08;;;;;;;21.32;47.94;101198.94;4995181;28;20022;-55
2023/06/23 00:19:17;;;;;;;6.00;2.35;;;;;;;21.07;48.56;101194.22;4995200;28;20494;-55
2023/06/23 00:21:46;;;;;;;5.72;2.13;;;;;;;21.08;49.60;101193.13;4995146;28;20030;-55
2023/06/23 00:24:12;;;;;;;4.55;2.25;;;;;;;20.97;50.27;101196.91;4994744;28;20022;-55
2023/06/23 00:26:38;;;;;;;7.93;2.20;;;;;;;20.80;50.79;101191.66;5010098;28;20391;-55
2023/06/23 00:29:05;;;;;;;5.53;2.28;;;;;;;20.83;50.33;101194.69;4994983;28;20026;-54
2023/06/23 00:31:31;;;;;;;8.70;2.67;;;;;;;20.97;51.25;101191.47;4994930;28;20032;-55
2023/06/23 00:33:57;;;;;;;4.47;1.88;;;;;;;21.01;49.87;101182.50;4995736;28;20105;-55
2023/06/23 00:36:24;;;;;;;5.95;2.15;;;;;;;20.83;50.96;101183.81;4994904;28;20022;-55
2023/06/23 00:38:50;;;;;;;3.75;2.22;;;;;;;20.72;50.32;101178.59;4994698;28;20022;-55
2023/06/23 00:41:16;;;;;;;6.47;2.55;;;;;;;20.73;51.96;101178.31;4994649;28;20466;-55
2023/06/23 00:43:49;;;;;;;7.20;2.63;;;;;;;20.83;51.15;101178.38;4994763;28;20045;-55
2023/06/23 00:46:21;;;;;;;4.28;1.88;;;;;;;20.76;50.30;101187.84;4994774;28;20102;-55
2023/06/23 00:48:48;;;;;;;4.15;1.75;;;;;;;20.58;50.61;101170.06;4995190;28;20027;-55
2023/06/23 00:51:16;;;;;;;3.65;2.00;;;;;;;20.36;51.42;101183.78;4994692;28;20478;-55
2023/06/23 00:53:47;;;;;;;4.63;2.05;;;;;;;20.28;51.89;101182.41;4994658;28;20053;-56
2023/06/23 00:56:22;;;;;;;6.00;2.20;;;;;;;20.11;52.54;101179.03;4994917;28;20034;-55
2023/06/23 00:58:49;;;;;;;6.18;2.75;;;;;;;20.14;53.59;101175.78;4995148;28;20399;-56
2023/06/23 01:01:16;;;;;;;8.57;2.33;;;;;;;20.14;53.10;101177.66;4995088;28;20108;-55
2023/06/23 01:03:43;;;;;;;6.15;2.63;;;;;;;20.16;53.94;101170.91;4994527;28;20041;-55
2023/06/23 01:06:54;;;;;;;4.10;2.22;;;;;;;20.11;54.32;101170.88;4994362;28;20034;-55
2023/06/23 01:09:23;;;;;;;6.93;2.17;;;;;;;20.25;53.55;101176.66;4983558;28;20495;-55
2023/06/23 01:12:15;;;;;;;5.93;2.17;;;;;;;20.13;53.67;101168.69;4994465;28;20036;-55
2023/06/23 01:15:09;;;;;;;3.00;1.98;;;;;;;20.10;54.12;101177.41;4994895;28;20022;-53
2023/06/23 01:17:57;;;;;;;4.35;2.10;;;;;;;20.03;53.79;101174.06;4993911;28;20053;-59
2023/06/23 01:20:29;;;;;;;3.47;1.88;;;;;;;19.68;53.38;101170.00;4994287;28;20026;-58
2023/06/23 01:23:11;;;;;;;3.40;1.92;;;;;;;19.68;53.50;101178.13;4994544;28;20023;-59
2023/06/23 01:25:55;;;;;;;4.03;1.73;;;;;;;19.60;55.27;101169.63;4994109;28;20408;-58
2023/06/23 01:28:38;;;;;;;6.60;1.90;;;;;;;19.59;54.81;101174.25;4994091;28;20029;-58
2023/06/23 01:31:08;;;;;;;4.78;1.90;;;;;;;19.68;54.42;101175.44;4994629;28;20109;-56
2023/06/23 01:33:39;;;;;;;9.57;2.10;;;;;;;19.89;54.64;101181.84;4993985;28;20023;-53
2023/06/23 01:36:15;;;;;;;3.25;2.10;;;;;;;19.81;54.50;101174.16;4994269;28;20041;-57
2023/06/23 01:38:48;;;;;;;4.90;2.50;;;;;;;19.77;54.82;101184.75;4994266;28;20024;-57
2023/06/23 01:41:21;;;;;;;5.13;1.83;;;;;;;19.20;56.33;101181.69;4993754;28;20073;-55
2023/06/23 01:43:53;;;;;;;5.72;2.35;;;;;;;19.06;57.02;101186.72;4993764;28;20036;-51
2023/06/23 01:46:25;;;;;;;5.35;2.53;;;;;;;18.78;57.59;101186.91;4993794;28;20030;-50
2023/06/23 01:48:57;;;;;;;4.90;2.25;;;;;;;18.69;59.30;101197.38;4994098;28;20138;-48
2023/06/23 01:51:26;;;;;;;5.63;2.15;;;;;;;18.84;59.10;101188.63;4993822;28;20398;-56
2023/06/23 01:53:55;;;;;;;6.38;2.22;;;;;;;18.83;59.33;101187.81;4993796;28;20026;-52
2023/06/23 01:56:24;;;;;;;6.57;2.38;;;;;;;18.62;59.40;101192.09;4993617;28;20026;-52
2023/06/23 01:58:52;;;;;;;8.43;2.47;;;;;;;18.39;61.05;101193.16;4993555;28;20046;-57
2023/06/23 02:01:20;;;;;;;3.78;2.35;;;;;;;18.64;60.51;101191.84;4993839;28;20115;-54
2023/06/23 02:03:48;;;;;;;6.85;2.20;;;;;;;18.45;61.01;101196.75;4994658;28;20027;-57
2023/06/23 02:06:15;;;;;;;8.57;2.65;;;;;;;18.42;61.63;101199.94;4993738;28;20022;-57
2023/06/23 02:08:42;;;;;;;5.07;2.50;;;;;;;18.39;61.22;101192.34;4993675;28;20014;-57
2023/06/23 02:11:10;;;;;;;13.45;2.72;;;;;;;18.52;61.25;101200.09;4993775;28;20022;-56
2023/06/23 02:13:41;;;;;;;5.78;2.67;;;;;;;18.43;61.61;101198.88;4993286;28;20080;-57
2023/06/23 02:16:09;;;;;;;7.95;2.85;;;;;;;18.33;61.97;101210.41;4993391;28;20109;-56
2023/06/23 02:18:36;;;;;;;8.00;2.45;;;;;;;18.15;62.47;101208.75;4993277;28;20105;-50
2023/06/23 02:21:05;;;;;;;4.50;2.50;;;;;;;17.85;63.88;101211.81;4993485;28;20062;-48
2023/06/23 02:23:34;;;;;;;3.47;2.03;;;;;;;17.83;63.92;101211.25;4993224;28;20030;-47
2023/06/23 02:26:02;;;;;;;4.40;3.13;;;;;;;17.74;64.84;101217.28;4993336;28;20084;-59
2023/06/23 02:28:28;;;;;;;6.97;2.80;;;;;;;17.58;65.28;101217.00;4993668;28;20023;-53
2023/06/23 02:30:55;;;;;;;4.30;2.83;;;;;;;17.68;65.01;101214.47;4997523;28;20030;-52
2023/06/23 02:33:22;;;;;;;9.48;3.35;;;;;;;17.38;66.14;101220.16;4997357;28;20538;-55
2023/06/23 02:35:53;;;;;;;4.22;2.50;;;;;;;17.29;67.05;101223.47;4997140;28;20061;-57
2023/06/23 02:38:24;;;;;;;7.50;3.05;;;;;;;17.17;66.79;101223.53;4997305;28;20073;-57
2023/06/23 02:40:52;;;;;;;6.38;2.90;;;;;;;17.00;67.65;101217.22;4997247;28;20042;-59
2023/06/23 02:43:32;;;;;;;5.35;2.38;;;;;;;16.91;67.85;101224.88;4997076;28;20034;-57
2023/06/23 02:46:01;;;;;;;7.53;2.95;;;;;;;16.99;68.03;101223.69;4997066;28;20419;-57
2023/06/23 02:48:43;;;;;;;6.07;2.65;;;;;;;16.86;69.27;101230.19;4997238;28;20034;-54
2023/06/23 02:51:14;;;;;;;7.10;3.00;;;;;;;16.80;69.15;101229.25;4997222;28;20030;-58
2023/06/23 02:53:50;;;;;;;8.15;2.53;;;;;;;16.59;70.24;101233.34;4997467;28;20073;-57
2023/06/23 02:56:22;;;;;;;5.13;2.70;;;;;;;16.54;70.62;101235.94;4996816;28;20030;-58
2023/06/23 02:58:51;;;;;;;5.68;2.67;;;;;;;16.57;70.77;101242.75;4996044;28;20068;-58
2023/06/23 03:01:22;;;;;;;7.00;2.88;;;;;;;16.40;71.11;101239.13;4996707;28;20143;-57
2023/06/23 03:03:49;;;;;;;4.35;2.17;;;;;;;16.56;70.99;101246.53;4997041;28;20386;-62
2023/06/23 03:06:20;;;;;;;3.70;2.28;;;;;;;16.52;71.12;101251.56;4996879;28;20415;-57
2023/06/23 03:08:50;;;;;;;7.53;3.10;;;;;;;16.54;70.92;101246.75;4996707;28;20471;-57
2023/06/23 03:11:18;;;;;;;5.25;2.65;;;;;;;16.58;70.55;101245.22;4996602;28;20089;-58
2023/06/23 03:13:45;;;;;;;6.25;2.97;;;;;;;16.55;70.52;101247.59;4996622;28;20037;-58
2023/06/23 03:16:31;;;;;;;3.70;2.13;;;;;;;16.48;70.95;101249.56;4996549;28;20080;-58
2023/06/23 03:19:26;;;;;;;4.20;2.60;;;;;;;16.37;71.30;101260.13;4996512;28;20479;-58
2023/06/23 03:22:07;;;;;;;3.35;2.05;;;;;;;16.43;71.28;101247.56;4996505;28;20081;-58
2023/06/23 03:24:37;;;;;;;3.05;1.90;;;;;;;16.43;71.22;101244.88;4996216;28;20440;-58
2023/06/23 03:27:07;;;;;;;2.33;2.00;;;;;;;16.34;71.80;101254.41;4996341;28;20026;-58
2023/06/23 03:29:40;;;;;;;3.08;1.77;;;;;;;16.41;71.58;101257.81;5011540;28;20395;-59
2023/06/23 03:32:10;;;;;;;3.03;1.85;;;;;;;16.34;72.25;101255.22;4996551;28;20026;-58
2023/06/23 03:34:42;;;;;;;2.35;1.83;;;;;;;16.41;71.78;101257.81;4996367;28;20057;-60
2023/06/23 03:37:11;;;;;;;2.35;1.48;;;;;;;16.34;72.52;101254.41;4996489;28;20031;-51
2023/06/23 03:39:41;;;;;;;2.65;1.85;;;;;;;16.28;72.49;101256.16;4995913;28;20046;-50
2023/06/23 03:42:07;;;;;;;3.97;2.22;;;;;;;16.35;71.40;101253.34;4995811;28;20369;-51
2023/06/23 03:44:42;;;;;;;2.10;1.40;;;;;;;16.28;71.42;101256.16;4996218;28;20041;-51
2023/06/23 03:47:18;;;;;;;3.63;1.88;;;;;;;16.26;71.74;101257.44;4996238;28;20076;-50
2023/06/23 03:50:12;;;;;;;3.53;1.67;;;;;;;16.45;71.36;101253.59;4996100;28;20068;-51
2023/06/23 03:52:39;;;;;;;3.20;1.58;;;;;;;16.25;71.79;101259.31;4993476;28;20062;-50
2023/06/23 03:55:07;;;;;;;2.42;1.63;;;;;;;16.35;71.43;101258.75;4995618;28;20034;-50
2023/06/23 03:57:35;;;;;;;3.17;1.88;;;;;;;16.30;71.35;101267.53;5010681;28;20466;-49
2023/06/23 04:00:03;;;;;;;2.35;1.60;;;;;;;16.36;71.41;101263.06;4995654;28;20029;-51
2023/06/23 04:02:34;;;;;;;2.60;1.65;;;;;;;16.29;70.53;101260.50;5010684;28;20500;-47
2023/06/23 04:05:03;;;;;;;2.28;1.30;;;;;;;16.33;69.96;101272.50;4995535;28;20443;-51
2023/06/23 04:07:30;;;;;;;1.95;1.33;;;;;;;16.36;69.86;101277.41;4995527;28;20027;-50
2023/06/23 04:10:00;;;;;;;1.75;1.58;;;;;;;16.30;70.72;101278.34;4995812;28;20033;-51
2023/06/23 04:12:28;;;;;;;3.63;1.45;;;;;;;16.23;71.32;101279.53;4995463;28;20105;-51
2023/06/23 04:14:57;;;;;;;2.53;1.50;;;;;;;16.27;71.00;101278.00;4995433;28;20105;-51
2023/06/23 04:17:27;;;;;;;4.18;1.25;;;;;;;16.33;70.30;101275.19;4995422;28;20026;-51
2023/06/23 04:19:58;;;;;;;1.63;1.30;;;;;;;16.24;70.46;101283.84;4995621;28;20485;-51
2023/06/23 04:22:27;;;;;;;3.72;1.50;;;;;;;16.08;71.17;101286.16;4995607;28;20088;-50
2023/06/23 04:24:56;;;;;;;2.17;1.40;;;;;;;16.10;71.51;101294.88;4995187;28;20037;-52
2023/06/23 04:27:24;;;;;;;1.77;1.25;;;;;;;16.18;71.27;101295.59;4995428;28;20031;-49
2023/06/23 04:29:52;;;;;;;2.88;1.83;;;;;;;16.04;71.55;101301.19;4995163;28;20033;-52
2023/06/23 04:32:19;;;;;;;3.03;1.65;;;;;;;16.10;71.33;101303.00;4995561;28;20034;-51
2023/06/23 04:34:46;;;;;;;2.75;1.88;;;;;;;16.13;71.54;101298.16;4995002;28;20030;-52
2023/06/23 04:37:38;;;;;;;2.35;1.45;;;;;;;16.01;71.76;101301.66;4994993;28;20061;-49
2023/06/23 04:40:29;;;;;;;2.85;1.52;;;;;;;15.91;72.51;101312.19;4992576;28;20045;-51
2023/06/23 04:43:09;;;;;;;4.18;1.83;;;;;;;15.93;72.20;101304.66;4995215;28;20426;-49
2023/06/23 04:45:41;;;;;;;3.17;2.00;;;;;;;15.95;72.43;101302.59;4995044;28;20495;-49
2023/06/23 04:48:11;;;;;;;3.85;2.20;;;;;;;15.72;73.53;101313.31;4995108;28;20058;-52
2023/06/23 04:50:40;;;;;;;3.03;1.65;;;;;;;15.87;73.19;101312.88;4994841;28;20076;-51
2023/06/23 04:53:21;;;;;;;4.93;2.30;;;;;;;15.76;73.96;101320.69;4994350;28;20150;-50
2023/06/23 04:55:53;;;;;;;5.30;2.22;;;;;;;15.75;74.25;101329.03;4994842;28;20034;-52
2023/06/23 04:58:22;;;;;;;4.70;1.92;;;;;;;15.80;74.15;101321.06;4994570;28;20023;-52
2023/06/23 05:00:50;;;;;;;3.75;2.03;;;;;;;15.80;74.24;101329.16;4994790;28;20057;-49
2023/06/23 05:03:18;;;;;;;4.63;1.90;;;;;;;15.99;73.01;101328.06;4994839;28;20029;-50
2023/06/23 05:05:46;;;;;;;3.95;2.20;;;;;;;15.98;73.22;101326.41;4994602;28;20121;-51
2023/06/23 05:08:14;;;;;;;4.07;2.45;;;;;;;15.88;73.40;101339.66;4994381;28;20395;-51
2023/06/23 05:10:42;;;;;;;2.90;2.03;;;;;;;15.73;73.65;101326.56;4995441;28;20034;-50
2023/06/23 05:13:11;;;;;;;3.83;2.38;;;;;;;15.78;73.21;101324.00;4995041;28;20485;-52
2023/06/23 05:15:38;;;;;;;2.95;1.95;;;;;;;15.81;72.76;101328.09;4994252;28;20201;-49
2023/06/23 05:18:06;;;;;;;3.05;2.17;;;;;;;15.71;73.41;101322.44;4994289;28;20041;-51
2023/06/23 05:20:36;;;;;;;3.90;2.28;;;;;;;15.78;73.41;101324.00;4994151;28;20030;-49
2023/06/23 05:23:05;;;;;;;3.88;2.17;;;;;;;15.79;73.13;101319.44;4994172;28;20033;-48
2023/06/23 05:25:33;;;;;;;4.85;2.60;;;;;;;15.74;73.29;101324.69;4994033;28;20114;-49
2023/06/23 05:28:02;;;;;;;3.35;2.25;;;;;;;15.74;73.35;101322.00;4994136;28;20025;-51
2023/06/23 05:30:30;;;;;;;4.10;2.15;;;;;;;15.75;73.08;101320.94;4994091;28;20065;-52
2023/06/23 05:32:59;;;;;;;3.00;2.22;;;;;;;15.61;73.71;101320.25;4993903;28;20022;-51
2023/06/23 05:35:27;;;;;;;2.83;1.98;;;;;;;15.54;74.27;101323.03;4994480;28;20106;-52
2023/06/23 05:37:55;;;;;;;8.93;3.03;;;;;;;15.65;73.00;101317.94;4994003;28;20073;-51
2023/06/23 05:40:22;;;;;;;3.53;2.30;;;;;;;15.69;73.79;101313.75;4993719;28;20415;-49
2023/06/23 05:42:48;;;;;;;4.60;2.38;;;;;;;15.62;73.74;101313.81;4994183;28;20386;-50
2023/06/23 05:45:14;;;;;;;5.15;2.95;;;;;;;15.50;74.12;101316.47;4994231;28;20041;-51
2023/06/23 05:48:12;;;;;;;4.43;2.78;;;;;;;15.38;74.47;101306.63;4993799;28;20064;-49
2023/06/23 05:50:42;;;;;;;6.30;2.42;;;;;;;15.45;74.50;101313.63;4984648;28;20452;-50
2023/06/23 05:53:12;;;;;;;4.78;2.58;;;;;;;15.58;73.61;101302.63;5008780;28;20100;-51
2023/06/23 05:56:19;;;;;;;4.57;2.72;;;;;;;15.67;73.60;101299.66;4993625;28;20522;-48
2023/06/23 05:58:48;;;;;;;4.45;2.50;;;;;;;15.62;73.24;101304.91;5011343;28;20133;-50
2023/06/23 06:01:22;;;;;;;2.65;2.05;;;;;;;15.64;73.47;101300.13;5011010;28;20034;-49
2023/06/23 06:04:05;;;;;;;5.03;2.95;;;;;;;15.51;73.85;101309.19;5010512;28;20494;-51
2023/06/23 06:06:34;;;;;;;5.90;2.42;;;;;;;15.49;74.04;101309.41;5011243;28;20040;-52
2023/06/23 06:09:01;;;;;;;4.57;2.40;;;;;;;15.61;73.19;101305.94;5011518;28;20041;-50
2023/06/23 06:11:28;;;;;;;3.22;2.45;;;;;;;15.56;73.67;101303.94;5011190;28;20061;-51
2023/06/23 06:13:57;;;;;;;6.03;2.38;;;;;;;15.34;74.32;101306.28;5011544;28;20486;-50
2023/06/23 06:16:25;;;;;;;6.05;3.03;;;;;;;15.32;74.93;101306.50;5011434;28;20038;-47
2023/06/23 06:18:53;;;;;;;5.80;2.83;;;;;;;15.41;74.34;101311.59;5011407;28;20089;-50
2023/06/23 06:21:20;;;;;;;6.53;2.42;;;;;;;15.50;74.33;101319.16;5010986;28;20034;-50
2023/06/23 06:23:53;;;;;;;6.57;3.00;;;;;;;15.51;74.15;101304.59;5010873;28;20049;-50
2023/06/23 06:26:20;;;;;;;7.70;3.15;;;;;;;15.43;74.71;101310.31;5010888;28;20179;-52
2023/06/23 06:28:50;;;;;;;6.50;2.72;;;;;;;15.43;75.15;101318.38;5007975;28;20069;-48
2023/06/23 06:31:19;;;;;;;7.72;3.28;;;;;;;15.41;75.35;101314.28;4993269;28;20459;-50
2023/06/23 06:33:48;;;;;;;7.47;3.28;;;;;;;15.33;75.67;101315.44;4993332;28;20056;-51
2023/06/23 06:36:16;;;;;;;5.95;2.88;;;;;;;15.40;74.67;101302.69;4993237;28;20137;-50
2023/06/23 06:38:44;;;;;;;6.28;3.10;;;;;;;15.41;74.57;101311.59;4993481;28;20045;-51
2023/06/23 06:41:13;;;;;;;8.68;3.17;;;;;;;15.46;74.44;101314.44;4993102;28;20046;-48
2023/06/23 06:43:39;;;;;;;6.13;2.83;;;;;;;15.52;73.89;101308.13;4993520;28;20037;-51
2023/06/23 06:46:07;;;;;;;9.45;3.40;;;;;;;15.45;74.11;101316.31;4993231;28;20030;-49
2023/06/23 06:48:37;;;;;;;6.82;2.85;;;;;;;15.36;74.21;101314.13;4993453;28;20050;-50
2023/06/23 06:51:05;;;;;;;5.68;2.67;;;;;;;15.32;74.59;101313.75;4993168;28;20041;-50
2023/06/23 06:53:32;;;;;;;6.32;2.70;;;;;;;15.33;74.75;101318.13;4993050;28;20029;-48
2023/06/23 06:55:59;;;;;;;4.57;3.05;;;;;;;15.28;75.26;101317.97;4993117;28;20033;-51
2023/06/23 06:58:26;;;;;;;9.88;3.35;;;;;;;15.32;75.29;101320.00;4993077;28;20043;-50
2023/06/23 07:00:58;;;;;;;9.43;3.40;;;;;;;15.31;75.34;101325.59;4993381;28;20358;-51
2023/06/23 07:03:25;;;;;;;8.40;3.25;;;;;;;15.29;75.39;101323.13;4993084;28;20033;-48
2023/06/23 07:05:51;;;;;;;7.50;3.30;;;;;;;15.27;75.04;101321.72;4993045;28;20490;-51
2023/06/23 07:08:17;;;;;;;6.93;3.35;;;;;;;15.43;74.67;101314.88;4993206;28;20034;-51
2023/06/23 07:10:44;;;;;;;7.88;3.60;;;;;;;15.39;74.63;101329.88;4992939;28;20105;-52
2023/06/23 07:13:10;;;;;;;8.48;3.95;;;;;;;15.33;74.88;101328.91;4993328;28;20438;-51
2023/06/23 07:15:36;;;;;;;7.35;3.50;;;;;;;15.42;74.22;101324.84;4994857;28;20040;-47
2023/06/23 07:18:03;;;;;;;8.75;3.95;;;;;;;15.38;74.53;101329.06;4996454;28;20030;-47
2023/06/23 07:20:29;;;;;;;6.05;3.28;;;;;;;15.38;74.11;101325.50;4996390;28;20030;-48
2023/06/23 07:22:56;;;;;;;4.22;3.33;;;;;;;15.33;74.27;101328.91;4996275;28;20110;-48
2023/06/23 07:25:22;;;;;;;7.97;3.00;;;;;;;15.43;73.81;101337.28;4996174;28;20062;-48
2023/06/23 07:27:48;;;;;;;6.38;3.17;;;;;;;15.50;73.81;101338.03;4996374;28;20033;-50
2023/06/23 07:30:16;;;;;;;6.72;2.90;;;;;;;15.40;73.67;101332.34;4996276;28;20023;-49
2023/06/23 07:32:46;;;;;;;4.43;2.70;;;;;;;15.35;73.70;101329.50;4996189;28;20034;-50
2023/06/23 07:35:13;;;;;;;6.20;3.13;;;;;;;15.23;74.44;101332.13;4996159;28;20022;-50
2023/06/23 07:37:39;;;;;;;4.35;2.78;;;;;;;15.25;74.25;101329.19;4996370;28;20375;-48
2023/06/23 07:40:06;;;;;;;5.25;2.65;;;;;;;15.37;74.24;101327.38;4995879;28;20042;-52
2023/06/23 07:42:33;;;;;;;4.43;2.90;;;;;;;15.33;74.26;101323.53;4996099;28;20160;-51
2023/06/23 07:44:59;;;;;;;6.63;3.25;;;;;;;15.46;73.33;101325.22;4995896;28;20038;-50
2023/06/23 07:47:25;;;;;;;4.90;3.05;;;;;;;15.38;73.60;101326.38;4996574;28;20023;-52
2023/06/23 07:49:51;;;;;;;8.13;3.45;;;;;;;15.45;73.66;101321.69;4996500;28;20034;-50
2023/06/23 07:52:18;;;;;;;6.35;3.20;;;;;;;15.50;73.80;101316.47;4995801;28;20054;-51
2023/06/23 07:54:44;;;;;;;5.38;3.28;;;;;;;15.56;72.77;101318.25;4995771;28;20022;-51
2023/06/23 07:57:12;;;;;;;4.93;3.33;;;;;;;15.55;73.31;101324.69;4996208;28;20031;-49
2023/06/23 07:59:39;;;;;;;10.52;3.67;;;;;;;15.49;74.16;101312.13;4995613;28;20054;-48
2023/06/23 08:02:06;;;;;;;6.07;3.22;;;;;;;15.46;73.78;101315.25;4995648;28;20023;-49
2023/06/23 08:04:32;;;;;;;10.85;4.22;;;;;;;15.49;73.85;101316.66;4995520;28;20057;-47
2023/06/23 08:06:59;;;;;;;6.57;3.45;;;;;;;15.44;74.45;101314.66;4995561;28;20034;-48
2023/06/23 08:09:25;;;;;;;8.27;3.80;;;;;;;15.42;74.88;101314.06;4995560;28;20030;-49
2023/06/23 08:11:51;;;;;;;9.43;3.88;;;;;;;15.31;75.49;101307.53;4995368;28;20379;-47
2023/06/23 08:14:18;;;;;;;7.03;4.00;;;;;;;15.52;74.00;101302.72;4995516;28;20030;-47
2023/06/23 08:16:44;;;;;;;8.15;4.05;;;;;;;15.34;74.94;101302.75;4995583;28;20022;-48
2023/06/23 08:19:10;;;;;;;7.15;3.97;;;;;;;15.35;75.03;101313.31;4995389;28;20027;-49
2023/06/23 08:21:36;;;;;;;6.35;3.60;;;;;;;15.42;75.21;101305.97;4995188;28;20034;-51
2023/06/23 08:24:03;;;;;;;8.57;3.55;;;;;;;15.36;75.60;101304.16;4994976;28;20039;-50
2023/06/23 08:26:29;;;;;;;7.63;3.92;;;;;;;15.29;75.15;101300.75;4994304;28;20018;-49
2023/06/23 08:28:55;;;;;;;7.63;4.00;;;;;;;15.26;75.85;101306.56;4995189;28;20042;-49
2023/06/23 08:31:22;;;;;;;9.48;4.07;;;;;;;15.26;76.01;101307.38;4995057;28;20034;-50
2023/06/23 08:33:48;;;;;;;8.05;3.80;;;;;;;15.45;75.12;101308.22;4995076;28;20045;-50
2023/06/23 08:36:14;;;;;;;6.53;3.85;;;;;;;15.53;74.33;101307.91;4994851;28;20019;-50
2023/06/23 08:38:41;;;;;;;9.68;3.88;;;;;;;15.30;74.68;101302.38;4994929;28;20615;-49
2023/06/23 08:41:09;;;;;;;5.50;3.42;;;;;;;15.32;73.92;101305.66;4994740;28;20042;-51
2023/06/23 08:43:38;;;;;;;7.88;3.20;;;;;;;15.28;74.76;101296.41;4994835;28;20030;-51
2023/06/23 08:46:07;;;;;;;5.80;3.20;;;;;;;15.34;74.93;101306.28;4995056;28;20101;-50
2023/06/23 08:48:35;;;;;;;5.60;3.30;;;;;;;15.26;75.10;101303.88;4995461;28;20033;-50
2023/06/23 08:51:02;;;;;;;5.55;3.25;;;;;;;15.27;75.40;101306.38;4994767;28;20396;-50
2023/06/23 08:53:28;;;;;;;4.47;3.53;;;;;;;15.20;76.58;101313.69;4994853;28;20034;-47
2023/06/23 08:55:56;;;;;;;5.28;3.38;;;;;;;15.22;76.96;101310.78;4994622;28;20031;-48
2023/06/23 08:58:24;;;;;;;7.20;3.75;;;;;;;15.34;76.63;101316.25;4994555;28;20073;-47
2023/06/23 09:00:53;;;;;;;9.43;3.72;;;;;;;15.25;77.11;101319.22;4994890;28;20045;-48
2023/06/23 09:03:24;;;;;;;6.40;3.50;;;;;;;15.15;76.53;101308.16;4994440;28;20570;-47
2023/06/23 09:05:50;;;;;;;10.13;3.72;;;;;;;15.24;75.85;101311.38;4994249;28;20037;-46
2023/06/23 09:08:17;;;;;;;10.77;3.42;;;;;;;15.25;75.66;101310.31;4994298;28;20042;-47
2023/06/23 09:10:43;;;;;;;8.52;3.30;;;;;;;15.27;74.62;101310.94;4994363;28;20018;-47
2023/06/23 09:13:48;;;;;;;5.13;2.90;;;;;;;15.26;74.28;101314.66;4994297;28;20069;-46
2023/06/23 09:16:16;;;;;;;7.07;3.55;;;;;;;15.14;75.23;101321.84;4993181;28;20038;-47
2023/06/23 09:18:47;;;;;;;5.60;3.33;;;;;;;15.27;75.32;101327.13;4994179;28;20555;-47
2023/06/23 09:21:14;;;;;;;8.13;3.53;;;;;;;15.21;75.04;101326.16;4994524;28;20027;-51
2023/06/23 09:24:03;;;;;;;10.32;3.55;;;;;;;15.12;74.90;101323.97;4994144;28;20023;-51
2023/06/23 09:26:30;;;;;;;6.07;3.22;;;;;;;15.12;75.20;101318.56;4994019;28;20438;-47
2023/06/23 09:29:24;;;;;;;4.20;2.78;;;;;;;15.15;73.88;101310.03;4994150;28;20105;-47
2023/06/23 09:31:52;;;;;;;4.90;2.25;;;;;;;15.16;73.34;101314.38;4993187;28;20034;-47
2023/06/23 09:34:34;;;;;;;4.45;2.50;;;;;;;15.03;73.93;101326.13;4994153;28;20037;-47
2023/06/23 09:37:16;;;;;;;6.65;2.10;;;;;;;15.22;71.20;101325.09;4993940;28;20031;-48
2023/06/23 09:39:49;;;;;;;3.35;1.83;;;;;;;15.12;70.95;101326.66;4993885;28;20030;-47
2023/06/23 09:42:15;;;;;;;3.38;1.85;;;;;;;15.16;70.47;101325.16;4993745;28;20046;-51
2023/06/23 09:44:48;;;;;;;2.90;2.30;;;;;;;15.12;71.03;101330.19;4994063;28;20105;-50
2023/06/23 09:47:16;;;;;;;4.22;2.35;;;;;;;15.14;71.26;101328.06;4994082;28;20029;-49
2023/06/23 09:49:44;;;;;;;4.15;2.83;;;;;;;15.04;71.89;101333.97;4993806;28;20021;-47
2023/06/23 09:52:21;;;;;;;4.60;2.50;;;;;;;15.09;71.99;101335.19;4993644;28;20538;-50
2023/06/23 09:54:48;;;;;;;4.22;2.25;;;;;;;14.99;71.28;101335.69;4994179;28;20057;-50
2023/06/23 09:57:17;;;;;;;3.75;2.30;;;;;;;15.05;70.80;101332.13;4993686;28;20018;-51
2023/06/23 09:59:44;;;;;;;5.03;1.77;;;;;;;15.07;69.84;101337.28;4993728;28;20026;-51
2023/06/23 10:02:27;;;;;;;2.60;1.80;;;;;;;15.04;70.15;101338.53;4993584;28;20374;-50
2023/06/23 10:05:05;;;;;;;3.08;2.08;;;;;;;15.13;70.41;101336.38;4993612;28;20026;-51
2023/06/23 10:07:33;;;;;;;2.97;1.73;;;;;;;15.03;70.61;101342.28;4993590;28;20085;-50
2023/06/23 10:10:07;;;;;;;5.47;2.20;;;;;;;15.15;70.33;101336.97;4993541;28;20038;-50
2023/06/23 10:12:34;;;;;;;4.82;2.20;;;;;;;15.16;70.75;101334.09;4993543;28;20180;-50
2023/06/23 10:15:00;;;;;;;5.03;2.40;;;;;;;15.07;71.57;101334.59;4993481;28;20027;-49
2023/06/23 10:17:26;;;;;;;2.65;1.85;;;;;;;15.15;71.09;101332.41;4993384;28;20379;-50
2023/06/23 10:19:56;;;;;;;3.25;2.03;;;;;;;15.11;72.24;101331.22;4993808;28;20143;-51
2023/06/23 10:22:22;;;;;;;4.22;2.22;;;;;;;14.87;72.43;101332.91;4993417;28;20027;-51
2023/06/23 10:24:52;;;;;;;4.80;2.08;;;;;;;15.01;72.02;101339.84;4994070;28;20060;-50
2023/06/23 10:27:24;;;;;;;6.22;1.80;;;;;;;15.01;71.63;101342.53;4993417;28;20022;-48
2023/06/23 10:29:54;;;;;;;4.70;2.10;;;;;;;15.08;71.24;101353.22;4993688;28;20054;-49
2023/06/23 10:32:26;;;;;;;6.65;2.20;;;;;;;14.95;71.58;101359.59;4993642;28;20105;-49
2023/06/23 10:34:55;;;;;;;6.43;2.00;;;;;;;14.95;71.28;101356.91;4993288;28;20046;-50
2023/06/23 10:37:23;;;;;;;2.88;1.73;;;;;;;14.93;71.39;101360.84;4993508;28;20031;-51
2023/06/23 10:39:58;;;;;;;2.22;1.60;;;;;;;14.95;71.46;101362.28;4993284;28;20081;-49
2023/06/23 10:42:27;;;;;;;5.97;2.20;;;;;;;15.03;71.31;101363.88;4993971;28;20042;-47
2023/06/23 10:44:55;;;;;;;3.15;1.40;;;;;;;14.96;71.66;101355.84;4993429;28;20077;-47
2023/06/23 10:47:22;;;;;;;3.30;1.63;;;;;;;15.04;71.29;101355.53;4993186;28;20034;-51
2023/06/23 10:49:49;;;;;;;4.25;1.67;;;;;;;15.09;70.94;101354.88;4994027;28;20018;-50
2023/06/23 10:52:16;;;;;;;3.78;1.33;;;;;;;14.94;71.61;101357.13;4997140;28;20026;-50
2023/06/23 10:54:43;;;;;;;4.03;1.60;;;;;;;14.98;71.64;101351.03;4997138;28;20033;-50
2023/06/23 10:57:14;;;;;;;3.33;1.33;;;;;;;14.86;71.27;101352.81;4996853;28;20419;-50
2023/06/23 10:59:52;;;;;;;3.20;1.67;;;;;;;14.72;71.93;101354.84;4996811;28;20050;-48
2023/06/23 11:02:20;;;;;;;2.65;1.20;;;;;;;14.82;71.49;101351.63;4996802;28;20034;-49
2023/06/23 11:05:16;;;;;;;3.03;1.67;;;;;;;15.00;70.46;101361.63;4996730;28;20529;-51
2023/06/23 11:08:03;;;;;;;3.67;1.45;;;;;;;15.00;70.57;101369.72;4996700;28;20030;-48
2023/06/23 11:10:49;;;;;;;3.22;1.60;;;;;;;14.93;70.58;101367.06;4996648;28;20030;-50
2023/06/23 11:13:15;;;;;;;2.38;1.30;;;;;;;14.93;69.68;101374.31;4996613;28;20479;-50
2023/06/23 11:15:52;;;;;;;2.70;1.00;;;;;;;14.95;69.84;101373.06;4996480;28;20038;-51
2023/06/23 11:18:22;;;;;;;2.78;1.40;;;;;;;14.88;70.40;101380.41;4996622;28;20097;-49
2023/06/23 11:20:50;;;;;;;3.65;1.42;;;;;;;15.05;70.24;101377.97;4996747;28;20092;-48
2023/06/23 11:23:16;;;;;;;2.63;1.23;;;;;;;14.99;70.42;101384.22;4996397;28;20029;-50
2023/06/23 11:25:50;;;;;;;2.95;1.20;;;;;;;14.98;70.07;101377.19;4996271;28;20029;-49
2023/06/23 11:28:36;;;;;;;2.13;1.33;;;;;;;14.97;70.29;101384.44;4996770;28;20026;-50
2023/06/23 11:31:08;;;;;;;1.98;1.20;;;;;;;15.20;69.83;101383.78;4996350;28;20037;-51
2023/06/23 11:33:55;;;;;;;6.82;1.92;;;;;;;15.17;71.73;101381.56;4996169;28;20387;-50
2023/06/23 11:36:25;;;;;;;10.27;2.88;;;;;;;15.17;73.05;101386.97;4996299;28;20023;-47
2023/06/23 11:38:51;;;;;;;8.07;3.10;;;;;;;14.99;74.41;101384.22;4996415;28;20149;-51
2023/06/23 11:41:26;;;;;;;4.15;2.70;;;;;;;15.09;74.30;101378.31;4995878;28;20049;-49